Terminal Aerodrome Forecast
Issued by NWS Mt. Holly, NJ

Home | Current Version | Previous Version | Text Only | Print | Product List | Glossary On
Versions: 1 2 3 4 5 6 7 8 9 10 11 12 13 14 15 16 17 18 19 20 21 22
000
FTUS41 KPHI 300149 AAB
TAFRDG
TAF AMD
KRDG 300149Z 3002/3024 05006KT P6SM BKN060
      TEMPO 3002/3003 -SHRA
     FM300400 VRB03KT 5SM BR SCT060
     FM300900 VRB03KT 1SM BR BKN200
     FM301400 15005KT P6SM VCSH SCT040 BKN100
     FM301700 16004KT 4SM SHRA OVC050=

USA.gov is the U.S. government's official web portal to all federal, state and local government web resources and services.